sensor_id;sensor_type;location;lat;lon;timestamp;P1;durP1;ratioP1;P2;durP2;ratioP2
3083;SDS011;1552;51.952;7.618;2022-10-31T00:00:19;25.92;;;14.27;;
3083;SDS011;1552;51.952;7.618;2022-10-31T00:02:45;28.27;;;15.05;;
3083;SDS011;1552;51.952;7.618;2022-10-31T00:05:12;26.92;;;15.10;;
3083;SDS011;1552;51.952;7.618;2022-10-31T00:07:39;26.40;;;15.18;;
3083;SDS011;1552;51.952;7.618;2022-10-31T00:10:06;22.80;;;15.00;;
3083;SDS011;1552;51.952;7.618;2022-10-31T00:12:32;29.03;;;15.10;;
3083;SDS011;1552;51.952;7.618;2022-10-31T00:14:59;23.50;;;16.13;;
3083;SDS011;1552;51.952;7.618;2022-10-31T00:17:25;23.23;;;14.23;;
3083;SDS011;1552;51.952;7.618;2022-10-31T00:19:51;27.10;;;14.33;;
3083;SDS011;1552;51.952;7.618;2022-10-31T00:22:18;28.67;;;16.73;;
3083;SDS011;1552;51.952;7.618;2022-10-31T00:24:53;26.77;;;16.87;;
3083;SDS011;1552;51.952;7.618;2022-10-31T00:27:19;25.83;;;16.05;;
3083;SDS011;1552;51.952;7.618;2022-10-31T00:29:46;24.27;;;14.93;;
3083;SDS011;1552;51.952;7.618;2022-10-31T00:32:12;30.40;;;16.37;;
3083;SDS011;1552;51.952;7.618;2022-10-31T00:34:38;24.27;;;15.60;;
3083;SDS011;1552;51.952;7.618;2022-10-31T00:37:04;28.30;;;15.80;;
3083;SDS011;1552;51.952;7.618;2022-10-31T00:39:31;24.00;;;15.40;;
3083;SDS011;1552;51.952;7.618;2022-10-31T00:41:58;34.07;;;17.80;;
3083;SDS011;1552;51.952;7.618;2022-10-31T00:44:24;26.00;;;14.70;;
3083;SDS011;1552;51.952;7.618;2022-10-31T00:46:52;28.77;;;16.10;;
3083;SDS011;1552;51.952;7.618;2022-10-31T00:49:18;33.13;;;17.20;;
3083;SDS011;1552;51.952;7.618;2022-10-31T00:51:44;35.10;;;18.37;;
3083;SDS011;1552;51.952;7.618;2022-10-31T00:56:42;27.67;;;17.43;;
3083;SDS011;1552;51.952;7.618;2022-10-31T00:59:10;29.10;;;16.75;;
3083;SDS011;1552;51.952;7.618;2022-10-31T01:01:36;27.33;;;16.63;;
3083;SDS011;1552;51.952;7.618;2022-10-31T01:04:02;28.07;;;16.83;;
3083;SDS011;1552;51.952;7.618;2022-10-31T01:06:28;27.83;;;17.08;;
3083;SDS011;1552;51.952;7.618;2022-10-31T01:08:55;29.53;;;16.47;;
3083;SDS011;1552;51.952;7.618;2022-10-31T01:11:22;28.33;;;16.07;;
3083;SDS011;1552;51.952;7.618;2022-10-31T01:13:49;22.80;;;14.63;;
3083;SDS011;1552;51.952;7.618;2022-10-31T01:16:18;28.15;;;15.90;;
3083;SDS011;1552;51.952;7.618;2022-10-31T01:18:51;28.92;;;16.80;;
3083;SDS011;1552;51.952;7.618;2022-10-31T01:21:18;27.13;;;15.47;;
3083;SDS011;1552;51.952;7.618;2022-10-31T01:23:45;26.38;;;16.05;;
3083;SDS011;1552;51.952;7.618;2022-10-31T01:26:12;29.33;;;15.33;;
3083;SDS011;1552;51.952;7.618;2022-10-31T01:28:42;27.03;;;16.63;;
3083;SDS011;1552;51.952;7.618;2022-10-31T01:31:09;31.23;;;15.63;;
3083;SDS011;1552;51.952;7.618;2022-10-31T01:33:36;28.05;;;16.58;;
3083;SDS011;1552;51.952;7.618;2022-10-31T01:36:10;27.90;;;16.47;;
3083;SDS011;1552;51.952;7.618;2022-10-31T01:38:37;28.20;;;16.53;;
3083;SDS011;1552;51.952;7.618;2022-10-31T01:41:04;24.80;;;16.00;;
3083;SDS011;1552;51.952;7.618;2022-10-31T01:43:41;28.07;;;15.80;;
3083;SDS011;1552;51.952;7.618;2022-10-31T01:46:07;25.33;;;16.13;;
3083;SDS011;1552;51.952;7.618;2022-10-31T01:48:33;27.87;;;15.43;;
3083;SDS011;1552;51.952;7.618;2022-10-31T01:51:01;31.07;;;16.53;;
3083;SDS011;1552;51.952;7.618;2022-10-31T01:53:29;28.93;;;17.33;;
3083;SDS011;1552;51.952;7.618;2022-10-31T01:55:56;32.40;;;18.00;;
3083;SDS011;1552;51.952;7.618;2022-10-31T01:58:24;31.43;;;18.93;;
3083;SDS011;1552;51.952;7.618;2022-10-31T02:00:51;27.97;;;16.83;;
3083;SDS011;1552;51.952;7.618;2022-10-31T02:03:19;30.00;;;18.13;;
3083;SDS011;1552;51.952;7.618;2022-10-31T02:05:46;30.63;;;16.53;;
3083;SDS011;1552;51.952;7.618;2022-10-31T02:08:15;26.57;;;16.13;;
3083;SDS011;1552;51.952;7.618;2022-10-31T02:10:43;25.93;;;16.37;;
3083;SDS011;1552;51.952;7.618;2022-10-31T02:13:10;30.03;;;16.70;;
3083;SDS011;1552;51.952;7.618;2022-10-31T02:15:38;34.10;;;19.03;;
3083;SDS011;1552;51.952;7.618;2022-10-31T02:18:05;26.73;;;18.20;;
3083;SDS011;1552;51.952;7.618;2022-10-31T02:20:32;29.90;;;17.27;;
3083;SDS011;1552;51.952;7.618;2022-10-31T02:25:59;26.80;;;16.37;;
3083;SDS011;1552;51.952;7.618;2022-10-31T02:28:33;25.33;;;15.30;;
3083;SDS011;1552;51.952;7.618;2022-10-31T02:31:05;28.90;;;16.83;;
3083;SDS011;1552;51.952;7.618;2022-10-31T02:33:36;33.00;;;17.43;;
3083;SDS011;1552;51.952;7.618;2022-10-31T02:36:08;28.93;;;17.67;;
3083;SDS011;1552;51.952;7.618;2022-10-31T02:38:38;38.83;;;17.60;;
3083;SDS011;1552;51.952;7.618;2022-10-31T02:41:09;29.60;;;16.70;;
3083;SDS011;1552;51.952;7.618;2022-10-31T02:43:40;34.83;;;18.93;;
3083;SDS011;1552;51.952;7.618;2022-10-31T02:46:13;28.63;;;18.93;;
3083;SDS011;1552;51.952;7.618;2022-10-31T02:48:40;34.97;;;19.80;;
3083;SDS011;1552;51.952;7.618;2022-10-31T02:51:08;26.63;;;17.47;;
3083;SDS011;1552;51.952;7.618;2022-10-31T02:53:36;31.37;;;18.30;;
3083;SDS011;1552;51.952;7.618;2022-10-31T02:56:04;26.07;;;16.47;;
3083;SDS011;1552;51.952;7.618;2022-10-31T02:58:32;33.53;;;18.97;;
3083;SDS011;1552;51.952;7.618;2022-10-31T03:01:09;27.03;;;16.60;;
3083;SDS011;1552;51.952;7.618;2022-10-31T03:03:40;27.23;;;16.33;;
3083;SDS011;1552;51.952;7.618;2022-10-31T03:06:10;29.83;;;17.40;;
3083;SDS011;1552;51.952;7.618;2022-10-31T03:08:40;26.07;;;16.07;;
3083;SDS011;1552;51.952;7.618;2022-10-31T03:11:07;34.07;;;17.37;;
3083;SDS011;1552;51.952;7.618;2022-10-31T03:13:35;24.53;;;16.37;;
3083;SDS011;1552;51.952;7.618;2022-10-31T03:16:06;28.00;;;16.97;;
3083;SDS011;1552;51.952;7.618;2022-10-31T03:18:34;28.83;;;17.63;;
3083;SDS011;1552;51.952;7.618;2022-10-31T03:21:04;29.03;;;17.57;;
3083;SDS011;1552;51.952;7.618;2022-10-31T03:23:32;30.37;;;18.03;;
3083;SDS011;1552;51.952;7.618;2022-10-31T03:26:02;30.30;;;18.40;;
3083;SDS011;1552;51.952;7.618;2022-10-31T03:28:31;34.13;;;17.17;;
3083;SDS011;1552;51.952;7.618;2022-10-31T03:31:00;30.90;;;17.00;;
3083;SDS011;1552;51.952;7.618;2022-10-31T03:33:28;29.83;;;17.80;;
3083;SDS011;1552;51.952;7.618;2022-10-31T03:35:57;27.87;;;16.10;;
3083;SDS011;1552;51.952;7.618;2022-10-31T03:38:26;27.67;;;16.60;;
3083;SDS011;1552;51.952;7.618;2022-10-31T03:40:52;28.57;;;17.33;;
3083;SDS011;1552;51.952;7.618;2022-10-31T03:43:21;28.63;;;17.17;;
3083;SDS011;1552;51.952;7.618;2022-10-31T03:45:50;27.97;;;15.67;;
3083;SDS011;1552;51.952;7.618;2022-10-31T03:48:17;25.47;;;16.57;;
3083;SDS011;1552;51.952;7.618;2022-10-31T03:50:45;19.87;;;14.13;;
3083;SDS011;1552;51.952;7.618;2022-10-31T03:53:16;23.20;;;14.67;;
3083;SDS011;1552;51.952;7.618;2022-10-31T03:55:46;26.13;;;16.37;;
3083;SDS011;1552;51.952;7.618;2022-10-31T03:58:15;24.17;;;15.60;;
3083;SDS011;1552;51.952;7.618;2022-10-31T04:00:44;28.60;;;16.67;;
3083;SDS011;1552;51.952;7.618;2022-10-31T04:03:12;26.93;;;16.63;;
3083;SDS011;1552;51.952;7.618;2022-10-31T04:05:40;27.77;;;16.83;;
3083;SDS011;1552;51.952;7.618;2022-10-31T04:08:09;26.00;;;16.57;;
3083;SDS011;1552;51.952;7.618;2022-10-31T04:10:37;28.50;;;16.93;;
3083;SDS011;1552;51.952;7.618;2022-10-31T04:13:07;26.77;;;16.03;;
3083;SDS011;1552;51.952;7.618;2022-10-31T04:15:34;28.63;;;17.03;;
3083;SDS011;1552;51.952;7.618;2022-10-31T04:18:00;25.97;;;16.00;;
3083;SDS011;1552;51.952;7.618;2022-10-31T04:20:29;27.10;;;17.03;;
3083;SDS011;1552;51.952;7.618;2022-10-31T04:22:56;28.77;;;15.83;;
3083;SDS011;1552;51.952;7.618;2022-10-31T04:25:22;25.63;;;16.10;;
3083;SDS011;1552;51.952;7.618;2022-10-31T04:27:48;29.10;;;17.00;;
3083;SDS011;1552;51.952;7.618;2022-10-31T04:30:16;25.40;;;15.20;;
3083;SDS011;1552;51.952;7.618;2022-10-31T04:32:42;24.23;;;15.33;;
3083;SDS011;1552;51.952;7.618;2022-10-31T04:35:09;24.60;;;16.80;;
3083;SDS011;1552;51.952;7.618;2022-10-31T04:37:35;22.70;;;15.27;;
3083;SDS011;1552;51.952;7.618;2022-10-31T04:40:02;24.60;;;16.00;;
3083;SDS011;1552;51.952;7.618;2022-10-31T04:42:28;24.53;;;16.30;;
3083;SDS011;1552;51.952;7.618;2022-10-31T04:44:55;26.23;;;17.27;;
3083;SDS011;1552;51.952;7.618;2022-10-31T04:47:22;29.33;;;19.07;;
3083;SDS011;1552;51.952;7.618;2022-10-31T04:49:48;25.07;;;16.33;;
3083;SDS011;1552;51.952;7.618;2022-10-31T04:52:15;31.23;;;18.07;;
3083;SDS011;1552;51.952;7.618;2022-10-31T04:54:41;27.27;;;16.67;;
3083;SDS011;1552;51.952;7.618;2022-10-31T04:57:07;27.87;;;16.63;;
3083;SDS011;1552;51.952;7.618;2022-10-31T04:59:34;29.83;;;17.83;;
3083;SDS011;1552;51.952;7.618;2022-10-31T05:02:00;27.13;;;16.07;;
3083;SDS011;1552;51.952;7.618;2022-10-31T05:04:28;24.13;;;16.57;;
3083;SDS011;1552;51.952;7.618;2022-10-31T05:06:54;28.63;;;16.60;;
3083;SDS011;1552;51.952;7.618;2022-10-31T05:09:20;31.47;;;18.00;;
3083;SDS011;1552;51.952;7.618;2022-10-31T05:11:46;33.87;;;17.37;;
3083;SDS011;1552;51.952;7.618;2022-10-31T05:14:13;32.30;;;17.60;;
3083;SDS011;1552;51.952;7.618;2022-10-31T05:16:39;24.33;;;16.73;;
3083;SDS011;1552;51.952;7.618;2022-10-31T05:19:05;33.63;;;18.33;;
3083;SDS011;1552;51.952;7.618;2022-10-31T05:21:33;32.03;;;18.87;;
3083;SDS011;1552;51.952;7.618;2022-10-31T05:24:00;32.23;;;16.97;;
3083;SDS011;1552;51.952;7.618;2022-10-31T05:26:27;29.20;;;16.60;;
3083;SDS011;1552;51.952;7.618;2022-10-31T05:28:53;28.73;;;16.03;;
3083;SDS011;1552;51.952;7.618;2022-10-31T05:31:19;24.73;;;15.33;;
3083;SDS011;1552;51.952;7.618;2022-10-31T05:33:46;24.33;;;15.90;;
3083;SDS011;1552;51.952;7.618;2022-10-31T05:36:12;24.73;;;15.93;;
3083;SDS011;1552;51.952;7.618;2022-10-31T05:38:40;23.80;;;15.77;;
3083;SDS011;1552;51.952;7.618;2022-10-31T05:41:06;23.47;;;16.13;;
3083;SDS011;1552;51.952;7.618;2022-10-31T05:43:32;23.70;;;16.83;;
3083;SDS011;1552;51.952;7.618;2022-10-31T05:45:59;27.27;;;17.17;;
3083;SDS011;1552;51.952;7.618;2022-10-31T05:48:25;26.60;;;16.50;;
3083;SDS011;1552;51.952;7.618;2022-10-31T05:50:51;26.37;;;16.47;;
3083;SDS011;1552;51.952;7.618;2022-10-31T05:53:18;24.43;;;15.67;;
3083;SDS011;1552;51.952;7.618;2022-10-31T05:55:46;30.73;;;16.73;;
3083;SDS011;1552;51.952;7.618;2022-10-31T05:58:13;27.53;;;16.90;;
3083;SDS011;1552;51.952;7.618;2022-10-31T06:00:39;34.43;;;18.97;;
3083;SDS011;1552;51.952;7.618;2022-10-31T06:03:06;37.43;;;19.10;;
3083;SDS011;1552;51.952;7.618;2022-10-31T06:05:33;28.10;;;16.30;;
3083;SDS011;1552;51.952;7.618;2022-10-31T06:07:59;31.23;;;17.93;;
3083;SDS011;1552;51.952;7.618;2022-10-31T06:10:26;30.93;;;17.40;;
3083;SDS011;1552;51.952;7.618;2022-10-31T06:12:54;31.30;;;17.03;;
3083;SDS011;1552;51.952;7.618;2022-10-31T06:15:20;28.73;;;16.60;;
3083;SDS011;1552;51.952;7.618;2022-10-31T06:17:47;28.80;;;17.53;;
3083;SDS011;1552;51.952;7.618;2022-10-31T06:20:13;29.17;;;18.87;;
3083;SDS011;1552;51.952;7.618;2022-10-31T06:22:39;24.73;;;16.77;;
3083;SDS011;1552;51.952;7.618;2022-10-31T06:25:06;31.33;;;16.03;;
3083;SDS011;1552;51.952;7.618;2022-10-31T06:27:32;27.90;;;18.00;;
3083;SDS011;1552;51.952;7.618;2022-10-31T06:30:00;26.47;;;16.47;;
3083;SDS011;1552;51.952;7.618;2022-10-31T06:32:26;29.97;;;16.93;;
3083;SDS011;1552;51.952;7.618;2022-10-31T06:34:52;25.80;;;16.97;;
3083;SDS011;1552;51.952;7.618;2022-10-31T06:37:19;29.77;;;18.03;;
3083;SDS011;1552;51.952;7.618;2022-10-31T06:39:45;27.93;;;17.43;;
3083;SDS011;1552;51.952;7.618;2022-10-31T06:42:11;30.03;;;18.67;;
3083;SDS011;1552;51.952;7.618;2022-10-31T06:44:38;30.63;;;19.13;;
3083;SDS011;1552;51.952;7.618;2022-10-31T06:47:06;27.30;;;18.33;;
3083;SDS011;1552;51.952;7.618;2022-10-31T06:49:32;26.47;;;17.63;;
3083;SDS011;1552;51.952;7.618;2022-10-31T06:51:58;29.63;;;18.50;;
3083;SDS011;1552;51.952;7.618;2022-10-31T06:54:25;30.27;;;18.73;;
3083;SDS011;1552;51.952;7.618;2022-10-31T06:56:51;31.80;;;19.30;;
3083;SDS011;1552;51.952;7.618;2022-10-31T06:59:17;28.67;;;17.40;;
3083;SDS011;1552;51.952;7.618;2022-10-31T07:01:44;33.83;;;19.50;;
3083;SDS011;1552;51.952;7.618;2022-10-31T07:04:12;30.47;;;19.43;;
3083;SDS011;1552;51.952;7.618;2022-10-31T07:06:38;29.67;;;18.07;;
3083;SDS011;1552;51.952;7.618;2022-10-31T07:09:05;28.83;;;18.10;;
3083;SDS011;1552;51.952;7.618;2022-10-31T07:11:31;27.70;;;17.57;;
3083;SDS011;1552;51.952;7.618;2022-10-31T07:13:57;27.90;;;18.47;;
3083;SDS011;1552;51.952;7.618;2022-10-31T07:16:24;24.63;;;17.30;;
3083;SDS011;1552;51.952;7.618;2022-10-31T07:18:50;25.00;;;18.03;;
3083;SDS011;1552;51.952;7.618;2022-10-31T07:21:18;27.50;;;17.77;;
3083;SDS011;1552;51.952;7.618;2022-10-31T07:23:46;23.53;;;16.10;;
3083;SDS011;1552;51.952;7.618;2022-10-31T07:26:12;24.43;;;16.90;;
3083;SDS011;1552;51.952;7.618;2022-10-31T07:28:39;21.90;;;16.00;;
3083;SDS011;1552;51.952;7.618;2022-10-31T07:31:05;28.33;;;18.13;;
3083;SDS011;1552;51.952;7.618;2022-10-31T07:33:31;28.30;;;19.97;;
3083;SDS011;1552;51.952;7.618;2022-10-31T07:35:58;30.63;;;19.80;;
3083;SDS011;1552;51.952;7.618;2022-10-31T07:38:25;26.00;;;18.67;;
3083;SDS011;1552;51.952;7.618;2022-10-31T07:40:52;23.23;;;17.47;;
3083;SDS011;1552;51.952;7.618;2022-10-31T07:43:18;25.97;;;18.30;;
3083;SDS011;1552;51.952;7.618;2022-10-31T07:45:48;26.43;;;18.83;;
3083;SDS011;1552;51.952;7.618;2022-10-31T07:48:14;27.73;;;18.73;;
3083;SDS011;1552;51.952;7.618;2022-10-31T07:50:41;26.27;;;18.07;;
3083;SDS011;1552;51.952;7.618;2022-10-31T07:53:07;23.43;;;17.47;;
3083;SDS011;1552;51.952;7.618;2022-10-31T07:55:35;26.77;;;18.60;;
3083;SDS011;1552;51.952;7.618;2022-10-31T07:58:02;26.87;;;18.80;;
3083;SDS011;1552;51.952;7.618;2022-10-31T08:00:29;36.23;;;22.00;;
3083;SDS011;1552;51.952;7.618;2022-10-31T08:02:58;27.97;;;19.27;;
3083;SDS011;1552;51.952;7.618;2022-10-31T08:05:25;31.33;;;20.43;;
3083;SDS011;1552;51.952;7.618;2022-10-31T08:07:51;35.40;;;21.13;;
3083;SDS011;1552;51.952;7.618;2022-10-31T08:10:17;29.97;;;20.03;;
3083;SDS011;1552;51.952;7.618;2022-10-31T08:12:45;35.27;;;20.57;;
3083;SDS011;1552;51.952;7.618;2022-10-31T08:15:11;36.50;;;22.03;;
3083;SDS011;1552;51.952;7.618;2022-10-31T08:17:38;34.40;;;21.03;;
3083;SDS011;1552;51.952;7.618;2022-10-31T08:20:04;27.20;;;18.77;;
3083;SDS011;1552;51.952;7.618;2022-10-31T08:22:31;27.53;;;18.87;;
3083;SDS011;1552;51.952;7.618;2022-10-31T08:24:57;25.57;;;18.63;;
3083;SDS011;1552;51.952;7.618;2022-10-31T08:27:24;34.33;;;22.93;;
3083;SDS011;1552;51.952;7.618;2022-10-31T08:29:51;27.80;;;19.70;;
3083;SDS011;1552;51.952;7.618;2022-10-31T08:32:17;29.70;;;21.47;;
3083;SDS011;1552;51.952;7.618;2022-10-31T08:34:44;33.87;;;23.23;;
3083;SDS011;1552;51.952;7.618;2022-10-31T08:37:10;29.80;;;19.63;;
3083;SDS011;1552;51.952;7.618;2022-10-31T08:39:36;36.10;;;22.37;;
3083;SDS011;1552;51.952;7.618;2022-10-31T08:42:02;33.13;;;21.30;;
3083;SDS011;1552;51.952;7.618;2022-10-31T08:44:29;30.90;;;20.10;;
3083;SDS011;1552;51.952;7.618;2022-10-31T08:46:56;30.90;;;21.40;;
3083;SDS011;1552;51.952;7.618;2022-10-31T08:49:23;29.27;;;19.43;;
3083;SDS011;1552;51.952;7.618;2022-10-31T08:51:49;31.40;;;19.30;;
3083;SDS011;1552;51.952;7.618;2022-10-31T08:54:15;30.70;;;21.20;;
3083;SDS011;1552;51.952;7.618;2022-10-31T08:56:41;32.10;;;22.50;;
3083;SDS011;1552;51.952;7.618;2022-10-31T08:59:08;32.53;;;20.60;;
3083;SDS011;1552;51.952;7.618;2022-10-31T09:01:34;34.23;;;23.07;;
3083;SDS011;1552;51.952;7.618;2022-10-31T09:04:02;35.47;;;23.57;;
3083;SDS011;1552;51.952;7.618;2022-10-31T09:06:28;33.83;;;22.90;;
3083;SDS011;1552;51.952;7.618;2022-10-31T09:08:54;37.00;;;24.00;;
3083;SDS011;1552;51.952;7.618;2022-10-31T09:11:20;36.50;;;23.13;;
3083;SDS011;1552;51.952;7.618;2022-10-31T09:13:47;37.20;;;22.80;;
3083;SDS011;1552;51.952;7.618;2022-10-31T09:16:13;40.73;;;24.90;;
3083;SDS011;1552;51.952;7.618;2022-10-31T09:18:39;36.07;;;23.23;;
3083;SDS011;1552;51.952;7.618;2022-10-31T09:21:08;38.77;;;24.73;;
3083;SDS011;1552;51.952;7.618;2022-10-31T09:23:34;31.07;;;20.00;;
3083;SDS011;1552;51.952;7.618;2022-10-31T09:26:00;33.07;;;21.43;;
3083;SDS011;1552;51.952;7.618;2022-10-31T09:28:27;34.33;;;20.57;;
3083;SDS011;1552;51.952;7.618;2022-10-31T09:30:53;35.27;;;21.43;;
3083;SDS011;1552;51.952;7.618;2022-10-31T09:33:20;33.70;;;20.37;;
3083;SDS011;1552;51.952;7.618;2022-10-31T09:35:47;38.70;;;23.33;;
3083;SDS011;1552;51.952;7.618;2022-10-31T09:38:15;34.70;;;22.07;;
3083;SDS011;1552;51.952;7.618;2022-10-31T09:40:45;33.70;;;21.57;;
3083;SDS011;1552;51.952;7.618;2022-10-31T09:43:17;37.87;;;21.27;;
3083;SDS011;1552;51.952;7.618;2022-10-31T09:45:47;33.47;;;20.27;;
3083;SDS011;1552;51.952;7.618;2022-10-31T09:48:30;35.15;;;21.70;;
3083;SDS011;1552;51.952;7.618;2022-10-31T09:51:00;34.50;;;20.87;;
3083;SDS011;1552;51.952;7.618;2022-10-31T09:53:30;37.75;;;21.15;;
3083;SDS011;1552;51.952;7.618;2022-10-31T09:55:58;37.17;;;21.42;;
3083;SDS011;1552;51.952;7.618;2022-10-31T09:58:25;34.17;;;21.53;;
3083;SDS011;1552;51.952;7.618;2022-10-31T10:00:52;41.08;;;21.85;;
3083;SDS011;1552;51.952;7.618;2022-10-31T10:03:22;34.28;;;21.88;;
3083;SDS011;1552;51.952;7.618;2022-10-31T10:05:54;39.92;;;21.92;;
3083;SDS011;1552;51.952;7.618;2022-10-31T10:08:23;35.03;;;21.93;;
3083;SDS011;1552;51.952;7.618;2022-10-31T10:10:53;33.83;;;22.13;;
3083;SDS011;1552;51.952;7.618;2022-10-31T10:13:26;35.13;;;22.20;;
3083;SDS011;1552;51.952;7.618;2022-10-31T10:16:06;39.22;;;22.80;;
3083;SDS011;1552;51.952;7.618;2022-10-31T10:18:38;35.72;;;22.52;;
3083;SDS011;1552;51.952;7.618;2022-10-31T10:21:13;42.63;;;22.38;;
3083;SDS011;1552;51.952;7.618;2022-10-31T10:23:45;42.72;;;23.80;;
3083;SDS011;1552;51.952;7.618;2022-10-31T10:26:17;31.02;;;20.45;;
3083;SDS011;1552;51.952;7.618;2022-10-31T10:28:44;33.67;;;21.20;;
3083;SDS011;1552;51.952;7.618;2022-10-31T10:31:13;36.58;;;21.00;;
3083;SDS011;1552;51.952;7.618;2022-10-31T10:33:40;38.30;;;21.17;;
3083;SDS011;1552;51.952;7.618;2022-10-31T10:36:10;37.05;;;22.02;;
3083;SDS011;1552;51.952;7.618;2022-10-31T10:38:38;40.03;;;21.73;;
3083;SDS011;1552;51.952;7.618;2022-10-31T10:41:07;31.75;;;19.80;;
3083;SDS011;1552;51.952;7.618;2022-10-31T10:43:37;31.45;;;20.25;;
3083;SDS011;1552;51.952;7.618;2022-10-31T10:46:06;33.83;;;20.67;;
3083;SDS011;1552;51.952;7.618;2022-10-31T10:48:57;29.45;;;18.98;;
3083;SDS011;1552;51.952;7.618;2022-10-31T10:51:27;37.92;;;20.80;;
3083;SDS011;1552;51.952;7.618;2022-10-31T10:54:02;32.17;;;20.63;;
3083;SDS011;1552;51.952;7.618;2022-10-31T10:56:45;33.63;;;19.73;;
3083;SDS011;1552;51.952;7.618;2022-10-31T10:59:15;34.40;;;19.75;;
3083;SDS011;1552;51.952;7.618;2022-10-31T11:01:42;28.48;;;19.95;;
3083;SDS011;1552;51.952;7.618;2022-10-31T11:04:24;37.22;;;22.00;;
3083;SDS011;1552;51.952;7.618;2022-10-31T11:06:58;32.05;;;20.83;;
3083;SDS011;1552;51.952;7.618;2022-10-31T11:09:25;35.58;;;20.60;;
3083;SDS011;1552;51.952;7.618;2022-10-31T11:11:51;36.45;;;21.95;;
3083;SDS011;1552;51.952;7.618;2022-10-31T11:14:23;32.08;;;19.60;;
3083;SDS011;1552;51.952;7.618;2022-10-31T11:16:51;37.97;;;21.55;;
3083;SDS011;1552;51.952;7.618;2022-10-31T11:19:20;32.80;;;20.77;;
3083;SDS011;1552;51.952;7.618;2022-10-31T11:21:47;38.95;;;20.60;;
3083;SDS011;1552;51.952;7.618;2022-10-31T11:24:15;41.47;;;23.00;;
3083;SDS011;1552;51.952;7.618;2022-10-31T11:26:42;36.45;;;21.45;;
3083;SDS011;1552;51.952;7.618;2022-10-31T11:29:12;31.63;;;19.25;;
3083;SDS011;1552;51.952;7.618;2022-10-31T11:31:40;39.65;;;22.20;;
3083;SDS011;1552;51.952;7.618;2022-10-31T11:34:11;33.92;;;20.60;;
3083;SDS011;1552;51.952;7.618;2022-10-31T11:36:39;31.48;;;20.00;;
3083;SDS011;1552;51.952;7.618;2022-10-31T11:39:12;33.25;;;20.35;;
3083;SDS011;1552;51.952;7.618;2022-10-31T11:41:40;34.95;;;20.98;;
3083;SDS011;1552;51.952;7.618;2022-10-31T11:44:10;31.23;;;19.77;;
3083;SDS011;1552;51.952;7.618;2022-10-31T11:46:38;29.38;;;19.35;;
3083;SDS011;1552;51.952;7.618;2022-10-31T11:49:11;34.97;;;20.10;;
3083;SDS011;1552;51.952;7.618;2022-10-31T11:51:38;29.35;;;17.92;;
3083;SDS011;1552;51.952;7.618;2022-10-31T11:54:05;30.42;;;18.08;;
3083;SDS011;1552;51.952;7.618;2022-10-31T11:56:38;26.35;;;16.13;;
3083;SDS011;1552;51.952;7.618;2022-10-31T11:59:05;29.80;;;17.35;;
3083;SDS011;1552;51.952;7.618;2022-10-31T12:01:32;25.05;;;16.63;;
3083;SDS011;1552;51.952;7.618;2022-10-31T12:04:00;27.65;;;16.02;;
3083;SDS011;1552;51.952;7.618;2022-10-31T12:06:31;27.60;;;16.58;;
3083;SDS011;1552;51.952;7.618;2022-10-31T12:08:59;25.48;;;16.75;;
3083;SDS011;1552;51.952;7.618;2022-10-31T12:11:34;27.50;;;15.68;;
3083;SDS011;1552;51.952;7.618;2022-10-31T12:14:08;25.17;;;14.80;;
3083;SDS011;1552;51.952;7.618;2022-10-31T12:16:42;25.33;;;15.20;;
3083;SDS011;1552;51.952;7.618;2022-10-31T12:19:13;30.60;;;16.02;;
3083;SDS011;1552;51.952;7.618;2022-10-31T12:21:47;25.00;;;15.88;;
3083;SDS011;1552;51.952;7.618;2022-10-31T12:24:18;27.20;;;16.02;;
3083;SDS011;1552;51.952;7.618;2022-10-31T12:26:50;27.25;;;16.38;;
3083;SDS011;1552;51.952;7.618;2022-10-31T12:29:24;28.70;;;16.63;;
3083;SDS011;1552;51.952;7.618;2022-10-31T12:31:58;26.75;;;15.75;;
3083;SDS011;1552;51.952;7.618;2022-10-31T12:34:33;28.83;;;17.48;;
3083;SDS011;1552;51.952;7.618;2022-10-31T12:37:04;31.30;;;17.58;;
3083;SDS011;1552;51.952;7.618;2022-10-31T12:39:37;30.60;;;18.20;;
3083;SDS011;1552;51.952;7.618;2022-10-31T12:42:09;30.38;;;17.50;;
3083;SDS011;1552;51.952;7.618;2022-10-31T12:44:46;32.75;;;16.98;;
3083;SDS011;1552;51.952;7.618;2022-10-31T12:47:22;28.75;;;15.93;;
3083;SDS011;1552;51.952;7.618;2022-10-31T12:49:54;27.83;;;17.35;;
3083;SDS011;1552;51.952;7.618;2022-10-31T12:52:29;30.42;;;17.65;;
3083;SDS011;1552;51.952;7.618;2022-10-31T12:55:03;32.53;;;19.45;;
3083;SDS011;1552;51.952;7.618;2022-10-31T12:57:33;31.88;;;18.65;;
3083;SDS011;1552;51.952;7.618;2022-10-31T13:00:02;28.02;;;16.75;;
3083;SDS011;1552;51.952;7.618;2022-10-31T13:02:30;35.38;;;18.58;;
3083;SDS011;1552;51.952;7.618;2022-10-31T13:04:58;30.50;;;18.83;;
3083;SDS011;1552;51.952;7.618;2022-10-31T13:07:29;35.22;;;19.35;;
3083;SDS011;1552;51.952;7.618;2022-10-31T13:09:56;30.95;;;17.55;;
3083;SDS011;1552;51.952;7.618;2022-10-31T13:12:25;32.60;;;19.33;;
3083;SDS011;1552;51.952;7.618;2022-10-31T13:14:54;44.80;;;20.75;;
3083;SDS011;1552;51.952;7.618;2022-10-31T13:17:22;37.53;;;18.83;;
3083;SDS011;1552;51.952;7.618;2022-10-31T13:19:50;35.25;;;19.58;;
3083;SDS011;1552;51.952;7.618;2022-10-31T13:22:18;36.70;;;19.65;;
3083;SDS011;1552;51.952;7.618;2022-10-31T13:24:50;42.00;;;20.73;;
3083;SDS011;1552;51.952;7.618;2022-10-31T13:27:19;37.40;;;19.70;;
3083;SDS011;1552;51.952;7.618;2022-10-31T13:29:50;41.72;;;20.83;;
3083;SDS011;1552;51.952;7.618;2022-10-31T13:32:22;34.03;;;21.02;;
3083;SDS011;1552;51.952;7.618;2022-10-31T13:34:50;41.55;;;21.15;;
3083;SDS011;1552;51.952;7.618;2022-10-31T13:37:27;36.22;;;21.13;;
3083;SDS011;1552;51.952;7.618;2022-10-31T13:40:03;40.58;;;21.88;;
3083;SDS011;1552;51.952;7.618;2022-10-31T13:42:34;36.60;;;21.10;;
3083;SDS011;1552;51.952;7.618;2022-10-31T13:45:08;41.13;;;21.58;;
3083;SDS011;1552;51.952;7.618;2022-10-31T13:47:37;38.63;;;20.58;;
3083;SDS011;1552;51.952;7.618;2022-10-31T13:50:04;37.53;;;20.77;;
3083;SDS011;1552;51.952;7.618;2022-10-31T13:52:31;34.78;;;20.60;;
3083;SDS011;1552;51.952;7.618;2022-10-31T13:54:57;38.65;;;21.63;;
3083;SDS011;1552;51.952;7.618;2022-10-31T13:57:28;39.78;;;21.88;;
3083;SDS011;1552;51.952;7.618;2022-10-31T13:59:56;44.63;;;22.92;;
3083;SDS011;1552;51.952;7.618;2022-10-31T14:02:25;44.92;;;23.52;;
3083;SDS011;1552;51.952;7.618;2022-10-31T14:04:54;37.78;;;22.40;;
3083;SDS011;1552;51.952;7.618;2022-10-31T14:07:22;44.70;;;24.02;;
3083;SDS011;1552;51.952;7.618;2022-10-31T14:09:51;38.70;;;21.55;;
3083;SDS011;1552;51.952;7.618;2022-10-31T14:12:22;42.42;;;22.70;;
3083;SDS011;1552;51.952;7.618;2022-10-31T14:14:52;37.75;;;22.42;;
3083;SDS011;1552;51.952;7.618;2022-10-31T14:17:23;40.72;;;22.25;;
3083;SDS011;1552;51.952;7.618;2022-10-31T14:20:03;39.70;;;22.52;;
3083;SDS011;1552;51.952;7.618;2022-10-31T14:22:46;39.92;;;21.45;;
3083;SDS011;1552;51.952;7.618;2022-10-31T14:25:26;39.58;;;23.42;;
3083;SDS011;1552;51.952;7.618;2022-10-31T14:27:52;38.28;;;22.88;;
3083;SDS011;1552;51.952;7.618;2022-10-31T14:30:21;44.50;;;23.30;;
3083;SDS011;1552;51.952;7.618;2022-10-31T14:32:49;39.75;;;22.83;;
3083;SDS011;1552;51.952;7.618;2022-10-31T14:35:16;39.13;;;22.08;;
3083;SDS011;1552;51.952;7.618;2022-10-31T14:40:30;47.85;;;23.33;;
3083;SDS011;1552;51.952;7.618;2022-10-31T14:43:07;44.85;;;24.10;;
3083;SDS011;1552;51.952;7.618;2022-10-31T14:45:40;40.28;;;22.80;;
3083;SDS011;1552;51.952;7.618;2022-10-31T14:48:23;44.03;;;25.20;;
3083;SDS011;1552;51.952;7.618;2022-10-31T14:50:51;42.38;;;25.50;;
3083;SDS011;1552;51.952;7.618;2022-10-31T14:53:19;42.72;;;26.55;;
3083;SDS011;1552;51.952;7.618;2022-10-31T14:55:47;40.00;;;23.63;;
3083;SDS011;1552;51.952;7.618;2022-10-31T14:58:15;40.20;;;23.40;;
3083;SDS011;1552;51.952;7.618;2022-10-31T15:00:50;42.30;;;24.17;;
3083;SDS011;1552;51.952;7.618;2022-10-31T15:03:18;41.67;;;23.83;;